Time;durP1;ratioP1;P1;durP2;ratioP2;P2;SDS_P1;SDS_P2;PMS_P1;PMS_P2;Temp;Humidity;BMP_temperature;BMP_pressure;BME280_temperature;BME280_humidity;BME280_pressure;Samples;Min_cycle;Max_cycle;Signal;HPM_P1;HPM_P2
2023/09/01 00:01:43;;;;;;;4.38;1.83;;;12.80;99.90;;;;;;5073975;28;20491;-71
2023/09/01 00:04:08;;;;;;;4.30;1.80;;;12.80;99.90;;;;;;5073890;28;20513;-71
2023/09/01 00:06:34;;;;;;;2.22;1.45;;;12.80;99.90;;;;;;5073117;28;20119;-71
2023/09/01 00:08:59;;;;;;;7.65;2.35;;;12.80;99.90;;;;;;5073514;28;20041;-71
2023/09/01 00:11:25;;;;;;;5.80;2.03;;;12.80;99.90;;;;;;5073683;28;20090;-70
2023/09/01 00:13:51;;;;;;;5.45;2.30;;;12.80;99.90;;;;;;5073720;28;20040;-71
2023/09/01 00:16:16;;;;;;;4.05;1.88;;;12.70;99.90;;;;;;5073669;28;20044;-70
2023/09/01 00:18:42;;;;;;;6.20;1.73;;;12.70;99.90;;;;;;5073623;28;20431;-69
2023/09/01 00:21:08;;;;;;;5.05;2.63;;;12.70;99.90;;;;;;5073410;28;20514;-70
2023/09/01 00:23:33;;;;;;;3.50;1.67;;;12.70;99.90;;;;;;5072606;28;20045;-70
2023/09/01 00:26:00;;;;;;;5.15;2.03;;;12.70;99.90;;;;;;5073523;28;20556;-70
2023/09/01 00:28:26;;;;;;;2.95;1.50;;;12.70;99.90;;;;;;5073259;28;20082;-70
2023/09/01 00:30:56;;;;;;;3.05;1.75;;;12.60;99.90;;;;;;5071893;28;20033;-70
2023/09/01 00:33:27;;;;;;;4.03;1.60;;;12.60;99.90;;;;;;5073323;28;20638;-70
2023/09/01 00:35:54;;;;;;;6.90;2.15;;;12.50;99.90;;;;;;5073376;28;20040;-70
2023/09/01 00:38:20;;;;;;;1.92;1.50;;;12.50;99.90;;;;;;5073354;28;20132;-70
2023/09/01 00:40:49;;;;;;;2.78;1.58;;;12.40;99.90;;;;;;5073027;28;20508;-70
2023/09/01 00:43:15;;;;;;;3.45;2.33;;;12.40;99.90;;;;;;5073175;28;20522;-70
2023/09/01 00:45:41;;;;;;;4.25;1.90;;;12.40;99.90;;;;;;5073044;28;20044;-70
2023/09/01 00:48:08;;;;;;;2.55;1.77;;;12.30;99.90;;;;;;5073303;28;20040;-70
2023/09/01 00:50:35;;;;;;;5.70;1.90;;;12.30;99.90;;;;;;5072986;28;20115;-69
2023/09/01 00:53:02;;;;;;;2.90;1.50;;;12.30;99.90;;;;;;5073058;28;20407;-69
2023/09/01 00:55:29;;;;;;;4.88;1.63;;;12.30;99.90;;;;;;5071652;28;20043;-69
2023/09/01 00:57:54;;;;;;;3.00;1.73;;;12.20;99.90;;;;;;5072757;28;20036;-69
2023/09/01 01:00:20;;;;;;;4.70;2.40;;;12.30;99.90;;;;;;5071995;28;20033;-70
2023/09/01 01:02:47;;;;;;;4.03;1.95;;;12.30;99.90;;;;;;5072907;28;20058;-69
2023/09/01 01:05:15;;;;;;;10.18;3.15;;;12.20;99.90;;;;;;5072605;28;20119;-69
2023/09/01 01:08:11;;;;;;;6.80;2.35;;;12.20;99.90;;;;;;5072665;28;20079;-70
2023/09/01 01:10:52;;;;;;;6.30;2.00;;;12.10;99.90;;;;;;5070908;28;20045;-70
2023/09/01 01:13:20;;;;;;;5.25;2.38;;;12.10;99.90;;;;;;5071428;28;20068;-69
2023/09/01 01:15:47;;;;;;;4.07;1.70;;;12.10;99.90;;;;;;5071328;28;20033;-69
2023/09/01 01:18:15;;;;;;;4.35;1.92;;;12.10;99.90;;;;;;5070125;28;20725;-70
2023/09/01 01:20:46;;;;;;;4.32;2.53;;;12.10;99.90;;;;;;5071984;28;20439;-69
2023/09/01 01:23:16;;;;;;;2.03;1.50;;;12.00;99.90;;;;;;5072448;28;20052;-69
2023/09/01 01:25:52;;;;;;;4.07;1.80;;;12.00;99.90;;;;;;5072383;28;20037;-69
2023/09/01 01:28:19;;;;;;;3.15;1.88;;;12.00;99.90;;;;;;5070912;28;20036;-70
2023/09/01 01:30:46;;;;;;;4.28;2.05;;;12.00;99.90;;;;;;5071484;28;20040;-69
2023/09/01 01:33:24;;;;;;;4.43;1.70;;;12.00;99.90;;;;;;5072218;28;20052;-69
2023/09/01 01:36:08;;;;;;;4.20;1.65;;;11.90;99.90;;;;;;5072434;28;20047;-69
2023/09/01 01:38:38;;;;;;;3.50;1.70;;;12.00;99.90;;;;;;5071990;28;20428;-70
2023/09/01 01:41:18;;;;;;;5.68;2.40;;;11.90;99.90;;;;;;5071980;28;20036;-70
2023/09/01 01:43:45;;;;;;;5.85;2.08;;;11.90;99.90;;;;;;5072100;28;20052;-70
2023/09/01 01:46:10;;;;;;;4.43;1.80;;;11.90;99.90;;;;;;5072192;28;20753;-70
2023/09/01 01:48:37;;;;;;;3.78;1.67;;;11.90;99.90;;;;;;5071596;28;20408;-70
2023/09/01 01:51:05;;;;;;;4.90;1.90;;;11.90;99.90;;;;;;5070745;28;20093;-70
2023/09/01 01:53:34;;;;;;;7.13;1.92;;;11.80;99.90;;;;;;5071939;28;20044;-70
2023/09/01 01:56:01;;;;;;;5.32;2.92;;;11.80;99.90;;;;;;5070549;28;20052;-70
2023/09/01 01:58:27;;;;;;;7.95;2.95;;;11.80;99.90;;;;;;5070220;28;20047;-70
2023/09/01 02:00:52;;;;;;;5.47;1.80;;;11.80;99.90;;;;;;5070329;28;20041;-70
2023/09/01 02:03:18;;;;;;;9.40;1.85;;;11.80;99.90;;;;;;5071975;28;20397;-70
2023/09/01 02:05:43;;;;;;;5.30;2.35;;;11.80;99.90;;;;;;5071942;28;20456;-69
2023/09/01 02:08:09;;;;;;;2.83;1.98;;;11.80;99.90;;;;;;5071585;28;20133;-69
2023/09/01 02:10:34;;;;;;;4.25;2.00;;;11.70;99.90;;;;;;5070850;28;20040;-69
2023/09/01 02:13:01;;;;;;;5.38;2.15;;;11.70;99.90;;;;;;5071451;28;20051;-70
2023/09/01 02:15:26;;;;;;;3.28;2.15;;;11.70;99.90;;;;;;5071884;28;20037;-70
2023/09/01 02:17:52;;;;;;;2.92;2.00;;;11.70;99.90;;;;;;5071547;28;20098;-70
2023/09/01 02:20:18;;;;;;;3.95;2.03;;;11.70;99.90;;;;;;5071191;28;20072;-70
2023/09/01 02:22:48;;;;;;;4.22;2.50;;;11.70;99.90;;;;;;5071723;28;20040;-70
2023/09/01 02:25:14;;;;;;;7.75;2.90;;;11.70;99.90;;;;;;5071626;28;20045;-70
2023/09/01 02:27:41;;;;;;;5.85;2.15;;;11.60;99.90;;;;;;5071387;28;20068;-70
2023/09/01 02:30:11;;;;;;;5.10;3.05;;;11.60;99.90;;;;;;5073283;28;20048;-70
2023/09/01 02:32:38;;;;;;;2.10;1.60;;;11.60;99.90;;;;;;5075882;28;20132;-70
2023/09/01 02:35:06;;;;;;;2.90;2.17;;;11.60;99.90;;;;;;5075809;28;20045;-69
2023/09/01 02:37:38;;;;;;;3.50;1.88;;;11.60;99.90;;;;;;5074464;28;20048;-71
2023/09/01 02:40:10;;;;;;;5.15;2.13;;;11.50;99.90;;;;;;5075095;28;20064;-70
2023/09/01 02:42:37;;;;;;;3.47;2.13;;;11.60;99.90;;;;;;5075847;28;20436;-69
2023/09/01 02:45:03;;;;;;;3.97;2.15;;;11.50;99.90;;;;;;5075650;28;20041;-69
2023/09/01 02:47:29;;;;;;;6.97;2.85;;;11.50;99.90;;;;;;5075473;28;20037;-69
2023/09/01 02:49:55;;;;;;;2.40;1.80;;;11.50;99.90;;;;;;5075178;28;20040;-69
2023/09/01 02:52:20;;;;;;;5.00;2.38;;;11.50;99.90;;;;;;5075268;28;20037;-70
2023/09/01 02:54:46;;;;;;;5.65;2.45;;;11.40;99.90;;;;;;5075011;28;20041;-71
2023/09/01 02:57:11;;;;;;;4.43;1.98;;;11.50;99.90;;;;;;5074013;28;20044;-69
2023/09/01 02:59:37;;;;;;;4.22;1.83;;;11.40;99.90;;;;;;5074041;28;20036;-69
2023/09/01 03:02:03;;;;;;;3.88;1.95;;;11.30;99.90;;;;;;5074957;28;20039;-69
2023/09/01 03:04:30;;;;;;;5.35;2.03;;;11.30;99.90;;;;;;5074960;28;20606;-70
2023/09/01 03:06:57;;;;;;;5.95;1.90;;;11.30;99.90;;;;;;5075054;28;20115;-71
2023/09/01 03:09:22;;;;;;;3.80;2.88;;;11.20;99.90;;;;;;5074430;28;20607;-69
2023/09/01 03:11:49;;;;;;;10.05;2.72;;;11.20;99.90;;;;;;5075037;28;20043;-69
2023/09/01 03:14:14;;;;;;;3.83;2.13;;;11.20;99.90;;;;;;5056955;28;20123;-69
2023/09/01 03:16:43;;;;;;;5.28;2.20;;;11.20;99.90;;;;;;5073579;28;20531;-69
2023/09/01 03:19:09;;;;;;;7.40;3.15;;;11.20;99.90;;;;;;5074501;28;20121;-69
2023/09/01 03:21:35;;;;;;;3.95;2.42;;;11.20;99.90;;;;;;5073510;28;20033;-70
2023/09/01 03:24:01;;;;;;;4.20;2.10;;;11.20;99.90;;;;;;5074573;28;20478;-70
2023/09/01 03:26:29;;;;;;;4.32;2.45;;;11.20;99.90;;;;;;5074845;28;20114;-70
2023/09/01 03:28:54;;;;;;;3.88;2.20;;;11.10;99.90;;;;;;5074337;28;20083;-70
2023/09/01 03:31:20;;;;;;;4.65;2.20;;;11.10;99.90;;;;;;5074631;28;20084;-69
2023/09/01 03:33:45;;;;;;;4.35;2.78;;;11.10;99.90;;;;;;5074542;28;20037;-69
2023/09/01 03:36:11;;;;;;;3.65;2.65;;;11.10;99.90;;;;;;5074392;28;20055;-69
2023/09/01 03:38:37;;;;;;;4.72;2.40;;;11.10;99.90;;;;;;5074103;28;20044;-68
2023/09/01 03:41:07;;;;;;;2.72;2.30;;;11.10;99.90;;;;;;5073032;28;20071;-69
2023/09/01 03:43:33;;;;;;;4.03;2.40;;;11.10;99.90;;;;;;5073933;28;20120;-69
2023/09/01 03:45:59;;;;;;;7.55;2.20;;;11.10;99.90;;;;;;5069622;28;20068;-69
2023/09/01 03:48:25;;;;;;;4.97;2.58;;;11.10;99.90;;;;;;5072758;28;20720;-69
2023/09/01 03:51:14;;;;;;;2.45;2.00;;;11.10;99.90;;;;;;5073542;28;20097;-69
2023/09/01 03:53:40;;;;;;;2.78;2.05;;;11.10;99.90;;;;;;5073812;28;20637;-69
2023/09/01 03:56:11;;;;;;;4.15;2.40;;;11.10;99.90;;;;;;5073858;28;20116;-69
2023/09/01 03:58:37;;;;;;;4.13;2.50;;;11.10;99.90;;;;;;5074005;28;20038;-69
2023/09/01 04:01:08;;;;;;;7.10;2.90;;;11.00;99.90;;;;;;5073865;28;20492;-69
2023/09/01 04:03:43;;;;;;;4.32;2.60;;;11.00;99.90;;;;;;5072967;28;20381;-69
2023/09/01 04:06:09;;;;;;;5.60;2.60;;;11.00;99.90;;;;;;5074161;28;20121;-69
2023/09/01 04:08:35;;;;;;;4.15;2.35;;;11.00;99.90;;;;;;5072509;28;20095;-69
2023/09/01 04:11:03;;;;;;;3.45;2.53;;;11.00;99.90;;;;;;5073908;28;20066;-69
2023/09/01 04:13:29;;;;;;;4.82;2.80;;;10.90;99.90;;;;;;5073803;28;20048;-71
2023/09/01 04:15:55;;;;;;;5.55;2.05;;;10.90;99.90;;;;;;5072504;28;20117;-72
2023/09/01 04:18:22;;;;;;;4.07;2.50;;;10.90;99.90;;;;;;5072388;28;20521;-69
2023/09/01 04:20:52;;;;;;;6.03;2.40;;;10.80;99.90;;;;;;5073567;28;20043;-69
2023/09/01 04:23:18;;;;;;;2.80;2.15;;;10.80;99.90;;;;;;5073684;28;20447;-69
2023/09/01 04:25:48;;;;;;;2.90;2.30;;;10.90;99.90;;;;;;5073590;28;20040;-69
2023/09/01 04:28:14;;;;;;;3.92;2.55;;;10.80;99.90;;;;;;5073276;28;20407;-69
2023/09/01 04:30:40;;;;;;;8.13;2.58;;;10.90;99.90;;;;;;5071885;28;20106;-72
2023/09/01 04:33:06;;;;;;;5.13;2.40;;;10.90;99.90;;;;;;5073530;28;20432;-71
2023/09/01 04:35:32;;;;;;;6.30;3.38;;;10.80;99.90;;;;;;5072111;28;20040;-72
2023/09/01 04:37:58;;;;;;;5.68;2.88;;;10.80;99.90;;;;;;5072368;28;20463;-72
2023/09/01 04:40:25;;;;;;;3.70;2.33;;;10.80;99.90;;;;;;5071673;28;20119;-72
2023/09/01 04:42:50;;;;;;;2.92;2.17;;;10.80;99.90;;;;;;5055383;28;20045;-72
2023/09/01 04:45:16;;;;;;;4.70;2.65;;;10.80;99.90;;;;;;5071969;28;20051;-72
2023/09/01 04:47:42;;;;;;;5.57;2.33;;;10.80;99.90;;;;;;5073129;28;20040;-72
2023/09/01 04:50:08;;;;;;;6.60;3.40;;;10.80;99.90;;;;;;5072868;28;20040;-69
2023/09/01 04:52:33;;;;;;;4.63;2.90;;;10.80;99.90;;;;;;5072646;28;20085;-72
2023/09/01 04:54:59;;;;;;;6.40;3.05;;;10.80;99.90;;;;;;5072937;28;20047;-70
2023/09/01 04:57:24;;;;;;;4.43;2.58;;;10.90;99.90;;;;;;5072551;28;20596;-71
2023/09/01 04:59:50;;;;;;;3.55;2.70;;;10.90;99.90;;;;;;5095732;22;20725;-68
2023/09/01 05:02:16;;;;;;;9.32;3.60;;;10.90;99.90;;;;;;5070164;28;20052;-69
2023/09/01 05:04:42;;;;;;;5.15;2.60;;;11.00;99.90;;;;;;5070911;28;20037;-69
2023/09/01 05:07:08;;;;;;;7.30;3.25;;;11.00;99.90;;;;;;5069328;28;20553;-69
2023/09/01 05:09:34;;;;;;;7.43;2.75;;;11.00;99.90;;;;;;5069207;28;20606;-69
2023/09/01 05:11:59;;;;;;;4.10;2.60;;;11.00;99.90;;;;;;5069580;28;20120;-69
2023/09/01 05:14:26;;;;;;;5.90;3.22;;;11.00;99.90;;;;;;5070462;28;20044;-69
2023/09/01 05:16:52;;;;;;;4.55;2.83;;;11.00;99.90;;;;;;5071574;28;20108;-69
2023/09/01 05:19:18;;;;;;;7.75;2.58;;;11.10;99.90;;;;;;5105114;28;20464;-69
2023/09/01 05:21:43;;;;;;;10.00;2.70;;;11.10;99.90;;;;;;5072615;28;20029;-69
2023/09/01 05:24:09;;;;;;;3.80;2.10;;;11.20;99.90;;;;;;5072691;28;20067;-69
2023/09/01 05:26:35;;;;;;;4.05;2.20;;;11.30;99.90;;;;;;5072603;28;20068;-68
2023/09/01 05:29:00;;;;;;;3.63;2.20;;;11.40;99.90;;;;;;5072219;28;20036;-67
2023/09/01 05:31:26;;;;;;;4.40;2.42;;;11.50;99.90;;;;;;5072502;28;20404;-67
2023/09/01 05:33:52;;;;;;;4.47;2.80;;;11.70;99.90;;;;;;5072517;28;20071;-68
2023/09/01 05:36:20;;;;;;;4.70;2.60;;;11.90;99.90;;;;;;5072547;28;20040;-69
2023/09/01 05:38:46;;;;;;;5.85;3.60;;;12.00;99.90;;;;;;5054620;28;20480;-68
2023/09/01 05:41:13;;;;;;;6.40;2.75;;;12.10;99.90;;;;;;5105194;28;20033;-68
2023/09/01 05:43:38;;;;;;;5.90;2.85;;;12.20;99.90;;;;;;5072996;28;20044;-68
2023/09/01 05:46:04;;;;;;;5.00;2.55;;;12.20;99.90;;;;;;5072986;28;20045;-68
2023/09/01 05:48:30;;;;;;;7.80;2.92;;;12.30;99.90;;;;;;5105085;28;20059;-68
2023/09/01 05:50:55;;;;;;;5.00;2.72;;;12.40;99.90;;;;;;5072873;28;20040;-68
2023/09/01 05:53:21;;;;;;;12.40;3.13;;;12.50;99.90;;;;;;5072396;28;20037;-68
2023/09/01 05:55:47;;;;;;;4.22;2.53;;;12.60;99.90;;;;;;5070912;28;20480;-68
2023/09/01 05:58:13;;;;;;;4.38;2.80;;;12.80;99.90;;;;;;5071998;28;20043;-68
2023/09/01 06:00:38;;;;;;;5.55;3.42;;;13.00;99.90;;;;;;5071677;28;20040;-67
2023/09/01 06:03:05;;;;;;;4.55;2.38;;;13.10;99.90;;;;;;5071934;28;20048;-69
2023/09/01 06:05:31;;;;;;;3.67;2.60;;;13.30;99.90;;;;;;5071484;28;20427;-69
2023/09/01 06:07:56;;;;;;;5.22;2.75;;;13.20;99.90;;;;;;5071957;28;20090;-69
2023/09/01 06:10:22;;;;;;;4.18;2.80;;;13.20;99.90;;;;;;5070351;28;20123;-69
2023/09/01 06:12:48;;;;;;;4.20;2.67;;;13.30;99.90;;;;;;5072014;28;20036;-69
2023/09/01 06:15:13;;;;;;;7.70;3.10;;;13.30;99.90;;;;;;5071914;28;20082;-69
2023/09/01 06:17:39;;;;;;;4.40;2.35;;;13.40;99.90;;;;;;5071790;28;20500;-69
2023/09/01 06:20:06;;;;;;;8.00;3.05;;;13.60;99.90;;;;;;5071590;28;20102;-67
2023/09/01 06:22:32;;;;;;;5.47;2.75;;;13.70;99.90;;;;;;5071741;28;20077;-67
2023/09/01 06:25:09;;;;;;;7.47;2.38;;;13.80;99.90;;;;;;5071651;28;20119;-69
2023/09/01 06:27:37;;;;;;;8.65;3.08;;;13.80;99.90;;;;;;5053811;28;20029;-67
2023/09/01 06:30:07;;;;;;;4.40;3.25;;;13.90;99.90;;;;;;5071448;28;20048;-68
2023/09/01 06:32:33;;;;;;;5.28;2.58;;;14.00;99.90;;;;;;5071178;28;20618;-69
2023/09/01 06:34:58;;;;;;;4.22;2.47;;;14.00;99.90;;;;;;5070762;28;20115;-69
2023/09/01 06:37:24;;;;;;;4.03;2.30;;;14.00;99.90;;;;;;5071347;28;20159;-68
2023/09/01 06:39:49;;;;;;;3.47;2.40;;;14.10;99.90;;;;;;5071128;28;20178;-68
2023/09/01 06:42:15;;;;;;;3.95;2.60;;;14.30;99.90;;;;;;5071753;28;20043;-68
2023/09/01 06:44:40;;;;;;;6.60;2.63;;;14.60;99.90;;;;;;5071621;28;20045;-69
2023/09/01 06:47:06;;;;;;;2.70;2.05;;;14.80;99.90;;;;;;5070299;28;20040;-68
2023/09/01 06:49:32;;;;;;;4.72;2.30;;;15.10;99.90;;;;;;5071117;28;20083;-68
2023/09/01 06:51:58;;;;;;;3.63;2.22;;;15.30;99.90;;;;;;5071331;28;20050;-69
2023/09/01 06:54:30;;;;;;;6.18;2.40;;;15.50;99.90;;;;;;5071523;28;20047;-68
2023/09/01 06:56:55;;;;;;;3.20;2.33;;;15.60;99.90;;;;;;5052906;28;20055;-68
2023/09/01 06:59:21;;;;;;;4.53;2.03;;;15.70;99.90;;;;;;5069926;28;20407;-68
2023/09/01 07:01:46;;;;;;;6.53;2.72;;;15.80;99.90;;;;;;5070801;28;20037;-68
2023/09/01 07:04:12;;;;;;;4.85;2.17;;;15.80;99.90;;;;;;5071068;28;20072;-68
2023/09/01 07:06:37;;;;;;;5.00;2.08;;;16.00;99.90;;;;;;5070377;28;20426;-68
2023/09/01 07:09:03;;;;;;;4.55;1.90;;;16.00;99.90;;;;;;5070735;28;20045;-68
2023/09/01 07:11:29;;;;;;;2.90;1.70;;;15.90;99.90;;;;;;5070944;28;20036;-68
2023/09/01 07:13:55;;;;;;;3.70;1.90;;;15.80;99.90;;;;;;5071119;28;20596;-68
2023/09/01 07:16:20;;;;;;;4.85;2.10;;;15.90;99.90;;;;;;5073367;28;20078;-68
2023/09/01 07:18:46;;;;;;;4.55;2.13;;;16.10;99.90;;;;;;5074711;28;20028;-68
2023/09/01 07:21:11;;;;;;;5.38;2.33;;;16.30;99.90;;;;;;5074657;28;20032;-68
2023/09/01 07:23:37;;;;;;;5.07;2.20;;;16.60;99.90;;;;;;5074938;28;20112;-68
2023/09/01 07:26:03;;;;;;;10.35;2.45;;;16.80;99.90;;;;;;5074923;28;20129;-68
2023/09/01 07:28:29;;;;;;;3.30;2.13;;;17.00;99.90;;;;;;5074536;28;20037;-68
2023/09/01 07:30:55;;;;;;;4.60;2.53;;;17.30;99.90;;;;;;5074579;28;20047;-68
2023/09/01 07:33:20;;;;;;;7.55;2.78;;;17.60;99.90;;;;;;5073206;28;20044;-68
2023/09/01 07:35:48;;;;;;;8.77;2.92;;;17.80;99.90;;;;;;5074508;28;20041;-68
2023/09/01 07:38:14;;;;;;;5.60;2.67;;;17.90;99.90;;;;;;5074623;28;20123;-68
2023/09/01 07:40:41;;;;;;;4.45;2.20;;;17.80;99.90;;;;;;5074463;28;20446;-68
2023/09/01 07:43:06;;;;;;;4.53;2.85;;;17.90;99.90;;;;;;5073434;28;20044;-69
2023/09/01 07:45:32;;;;;;;5.43;2.50;;;17.80;99.90;;;;;;5074494;28;20488;-68
2023/09/01 07:47:58;;;;;;;7.22;2.70;;;17.60;99.90;;;;;;5074276;28;20050;-68
2023/09/01 07:50:23;;;;;;;6.90;2.58;;;17.60;99.90;;;;;;5074000;28;20442;-68
2023/09/01 07:52:51;;;;;;;4.93;2.03;;;17.60;99.90;;;;;;5074423;28;20048;-68
2023/09/01 07:55:17;;;;;;;6.00;2.05;;;17.30;99.90;;;;;;5074450;28;20060;-68
2023/09/01 07:57:42;;;;;;;6.55;2.60;;;17.30;99.90;;;;;;5074283;28;20064;-68
2023/09/01 08:00:08;;;;;;;3.90;2.30;;;17.30;99.90;;;;;;5073997;28;20087;-68
2023/09/01 08:02:34;;;;;;;6.47;2.95;;;17.30;99.90;;;;;;5073983;28;20385;-68
2023/09/01 08:05:05;;;;;;;4.63;2.63;;;17.20;99.90;;;;;;5074058;28;20123;-68
2023/09/01 08:07:31;;;;;;;7.28;3.42;;;17.10;99.90;;;;;;5074162;28;20043;-68
2023/09/01 08:09:57;;;;;;;7.22;2.63;;;17.20;99.90;;;;;;5073857;28;20029;-68
2023/09/01 08:12:23;;;;;;;6.45;3.03;;;17.10;99.90;;;;;;5073983;28;20115;-68
2023/09/01 08:14:49;;;;;;;5.00;2.75;;;17.10;99.90;;;;;;5073880;28;20174;-68
2023/09/01 08:17:14;;;;;;;10.85;2.88;;;17.20;99.90;;;;;;5073494;28;20045;-68
2023/09/01 08:19:40;;;;;;;5.60;2.83;;;17.20;99.90;;;;;;5073385;28;20054;-68
2023/09/01 08:22:07;;;;;;;5.40;2.38;;;17.40;99.90;;;;;;5073621;28;20496;-68
2023/09/01 08:24:32;;;;;;;4.13;1.98;;;17.40;99.90;;;;;;5072371;28;20123;-68
2023/09/01 08:26:58;;;;;;;5.20;2.17;;;17.40;99.90;;;;;;5073123;28;20431;-68
2023/09/01 08:29:23;;;;;;;4.30;2.30;;;17.40;99.90;;;;;;5072081;28;20041;-68
2023/09/01 08:31:49;;;;;;;6.07;1.80;;;17.60;99.90;;;;;;5073516;28;20450;-68
2023/09/01 08:34:15;;;;;;;3.72;1.45;;;17.60;99.90;;;;;;5073260;28;20076;-68
2023/09/01 08:36:43;;;;;;;4.95;1.75;;;17.70;99.90;;;;;;5072126;28;20511;-68
2023/09/01 08:39:08;;;;;;;7.28;1.90;;;17.80;99.90;;;;;;5073329;28;20036;-70
2023/09/01 08:41:34;;;;;;;3.13;1.50;;;17.90;99.90;;;;;;5072285;28;20554;-69
2023/09/01 08:44:04;;;;;;;5.03;2.10;;;17.90;99.90;;;;;;5073315;28;20052;-68
2023/09/01 08:46:31;;;;;;;9.20;2.63;;;17.90;99.90;;;;;;5073079;28;20551;-68
2023/09/01 08:48:58;;;;;;;3.83;1.65;;;18.10;99.90;;;;;;5072800;28;20115;-69
2023/09/01 08:51:25;;;;;;;5.55;1.60;;;18.10;99.90;;;;;;5071811;28;20045;-68
2023/09/01 08:53:51;;;;;;;3.92;1.65;;;18.10;99.90;;;;;;5054605;28;20123;-68
2023/09/01 08:56:17;;;;;;;4.18;1.50;;;18.00;99.90;;;;;;5072665;28;20037;-68
2023/09/01 08:58:44;;;;;;;2.55;1.48;;;17.90;99.90;;;;;;5072335;28;20089;-69
2023/09/01 09:01:10;;;;;;;2.85;1.35;;;17.80;99.90;;;;;;5071541;28;20048;-69
2023/09/01 09:03:36;;;;;;;2.92;1.52;;;17.80;99.90;;;;;;5072676;28;20046;-68
2023/09/01 09:06:03;;;;;;;4.88;1.70;;;17.80;99.90;;;;;;5072905;28;20040;-69
2023/09/01 09:08:29;;;;;;;4.10;1.67;;;17.80;99.90;;;;;;5071354;28;20116;-68
2023/09/01 09:10:55;;;;;;;3.38;1.60;;;17.80;99.90;;;;;;5071456;28;20040;-69
2023/09/01 09:13:22;;;;;;;4.43;2.05;;;17.80;99.90;;;;;;5071437;28;20037;-69
2023/09/01 09:16:10;;;;;;;3.67;1.70;;;17.80;99.90;;;;;;5072072;28;20086;-68
2023/09/01 09:18:37;;;;;;;2.25;1.20;;;17.70;99.90;;;;;;5070557;28;20476;-68
2023/09/01 09:21:03;;;;;;;3.38;1.48;;;17.70;99.90;;;;;;5070947;28;20044;-68
2023/09/01 09:23:45;;;;;;;2.17;0.82;;;17.80;99.90;;;;;;5071497;28;20430;-68
2023/09/01 09:26:12;;;;;;;2.20;1.17;;;17.80;99.90;;;;;;5072366;28;20087;-69
2023/09/01 09:28:38;;;;;;;3.03;1.50;;;17.90;99.90;;;;;;5072226;28;20511;-68
2023/09/01 09:31:03;;;;;;;3.88;1.00;;;18.00;99.90;;;;;;5072298;28;20068;-68
2023/09/01 09:33:32;;;;;;;4.43;1.13;;;17.90;99.90;;;;;;5072231;28;20082;-68
2023/09/01 09:35:58;;;;;;;2.40;0.90;;;17.80;99.90;;;;;;5070973;28;20128;-68
2023/09/01 09:38:37;;;;;;;2.80;1.20;;;17.80;99.90;;;;;;5071754;28;20040;-68
2023/09/01 09:41:03;;;;;;;3.53;1.13;;;17.70;99.90;;;;;;5071886;28;20063;-68
2023/09/01 09:43:30;;;;;;;2.35;1.23;;;17.80;99.90;;;;;;5072320;28;20486;-68
2023/09/01 09:45:56;;;;;;;2.28;1.45;;;17.80;99.90;;;;;;5072171;28;20411;-68
2023/09/01 09:48:21;;;;;;;2.42;1.17;;;17.80;99.90;;;;;;5072109;28;20111;-68
2023/09/01 09:50:50;;;;;;;2.83;1.10;;;17.90;99.90;;;;;;5071368;28;20063;-68
2023/09/01 09:53:22;;;;;;;4.00;2.00;;;17.90;99.90;;;;;;5071449;28;20036;-68
2023/09/01 09:55:50;;;;;;;2.83;1.25;;;17.80;99.90;;;;;;5071786;28;20093;-68
2023/09/01 09:58:17;;;;;;;3.72;1.30;;;17.80;99.90;;;;;;5071995;28;20037;-68
2023/09/01 10:01:19;;;;;;;3.22;1.27;;;17.80;99.90;;;;;;5071641;28;20395;-68
2023/09/01 10:03:47;;;;;;;3.05;1.52;;;17.70;99.90;;;;;;5004893;28;20417;-68
2023/09/01 10:06:16;;;;;;;2.60;1.40;;;17.70;99.90;;;;;;5060040;28;20507;-69
2023/09/01 10:08:43;;;;;;;6.65;1.35;;;17.80;99.90;;;;;;5071653;28;20040;-68
2023/09/01 10:11:10;;;;;;;2.72;1.00;;;17.80;99.90;;;;;;5070726;28;20040;-68
2023/09/01 10:13:36;;;;;;;4.60;1.33;;;17.80;99.90;;;;;;5070496;28;20040;-68
2023/09/01 10:16:03;;;;;;;4.38;1.00;;;17.70;99.90;;;;;;5071793;28;20033;-68
2023/09/01 10:18:29;;;;;;;3.28;1.17;;;17.70;99.90;;;;;;5071350;28;20036;-68
2023/09/01 10:20:55;;;;;;;2.83;0.90;;;17.70;99.90;;;;;;5071659;28;20119;-68
2023/09/01 10:23:20;;;;;;;2.85;1.13;;;17.80;99.90;;;;;;5071991;28;20137;-68
2023/09/01 10:26:11;;;;;;;4.10;1.23;;;17.80;99.90;;;;;;5071717;28;20041;-68
2023/09/01 10:28:54;;;;;;;7.20;1.83;;;17.80;99.90;;;;;;5071353;28;20058;-68
2023/09/01 10:31:23;;;;;;;6.75;1.52;;;17.90;99.90;;;;;;5071779;28;20097;-68
2023/09/01 10:34:12;;;;;;;4.07;1.20;;;17.90;99.90;;;;;;5070409;28;20076;-68
2023/09/01 10:36:39;;;;;;;5.95;1.70;;;18.00;99.90;;;;;;5070350;28;20612;-68
2023/09/01 10:39:29;;;;;;;3.83;1.50;;;18.00;99.90;;;;;;5071185;28;20035;-68
2023/09/01 10:42:07;;;;;;;5.72;1.50;;;17.90;99.90;;;;;;5071515;28;20048;-68
2023/09/01 10:44:39;;;;;;;4.43;1.42;;;18.00;99.90;;;;;;5071406;28;20032;-68
2023/09/01 10:47:33;;;;;;;4.32;2.17;;;18.20;99.90;;;;;;5071353;28;20068;-68
2023/09/01 10:50:02;;;;;;;3.28;2.03;;;18.20;99.90;;;;;;5071370;28;20076;-68
2023/09/01 10:52:29;;;;;;;6.85;1.50;;;18.20;99.90;;;;;;5075600;28;20036;-68
2023/09/01 10:55:05;;;;;;;3.78;1.90;;;18.40;99.90;;;;;;5075421;28;20090;-69
2023/09/01 10:57:48;;;;;;;3.70;1.70;;;18.60;99.90;;;;;;5075117;28;20443;-68
2023/09/01 11:00:31;;;;;;;5.43;1.50;;;18.70;99.90;;;;;;5090397;22;20072;-69
2023/09/01 11:03:26;;;;;;;3.80;1.75;;;18.70;99.90;;;;;;5074189;28;20052;-70
2023/09/01 11:06:00;;;;;;;9.00;2.33;;;18.80;99.90;;;;;;5074047;28;20063;-70
2023/09/01 11:08:25;;;;;;;4.72;2.10;;;18.70;99.90;;;;;;5074764;28;20040;-72
2023/09/01 11:11:00;;;;;;;4.30;2.35;;;18.70;99.90;;;;;;5074910;28;20044;-71
2023/09/01 11:13:25;;;;;;;6.80;1.90;;;18.70;99.90;;;;;;5073403;28;20040;-69
2023/09/01 11:15:51;;;;;;;6.55;2.20;;;18.70;99.90;;;;;;5074693;28;20040;-70
2023/09/01 11:18:19;;;;;;;5.07;1.45;;;18.70;99.90;;;;;;5073354;28;20166;-70
2023/09/01 11:20:47;;;;;;;6.03;2.13;;;18.80;99.90;;;;;;5074423;28;20032;-70
2023/09/01 11:23:18;;;;;;;4.85;2.13;;;18.80;99.90;;;;;;5073711;28;20380;-70
2023/09/01 11:25:46;;;;;;;3.70;1.70;;;18.80;99.90;;;;;;5074894;28;20040;-70
2023/09/01 11:28:14;;;;;;;6.80;1.98;;;18.80;99.90;;;;;;5074562;28;20055;-70
2023/09/01 11:30:53;;;;;;;4.88;1.65;;;18.80;99.90;;;;;;5074350;28;20415;-70
2023/09/01 11:33:21;;;;;;;5.10;1.90;;;19.00;99.90;;;;;;5074243;28;20450;-70
2023/09/01 11:35:48;;;;;;;5.97;2.33;;;19.00;99.90;;;;;;5074719;28;20048;-71
2023/09/01 11:38:18;;;;;;;4.55;2.13;;;19.20;99.90;;;;;;5074540;28;20097;-70
2023/09/01 11:40:46;;;;;;;7.60;3.00;;;19.20;99.90;;;;;;5056259;28;20062;-71
2023/09/01 11:43:12;;;;;;;4.20;2.67;;;19.20;99.90;;;;;;5056664;28;20040;-71
2023/09/01 11:45:48;;;;;;;12.68;3.80;;;19.30;99.90;;;;;;5073057;28;20044;-71
2023/09/01 11:48:24;;;;;;;6.20;3.85;;;19.50;99.90;;;;;;5074472;28;20419;-72
2023/09/01 11:50:59;;;;;;;6.53;3.88;;;19.60;99.90;;;;;;5074379;28;20040;-72
2023/09/01 11:53:34;;;;;;;5.97;3.75;;;19.70;99.90;;;;;;5073027;28;20040;-70
2023/09/01 11:56:01;;;;;;;8.63;4.15;;;19.70;99.90;;;;;;5072869;28;20052;-71
2023/09/01 11:58:33;;;;;;;12.48;4.53;;;19.70;99.90;;;;;;5072535;28;20028;-71
2023/09/01 12:01:11;;;;;;;8.23;3.78;;;19.70;99.90;;;;;;5074040;28;20040;-71
2023/09/01 12:03:39;;;;;;;8.82;3.95;;;19.60;99.90;;;;;;5073232;28;20052;-71
2023/09/01 12:06:15;;;;;;;9.68;3.63;;;19.70;99.90;;;;;;5074125;28;20119;-70
2023/09/01 12:08:41;;;;;;;9.30;4.00;;;19.60;99.90;;;;;;5055604;28;20044;-71
2023/09/01 12:11:06;;;;;;;9.23;3.65;;;19.60;99.90;;;;;;5073902;28;20089;-71
2023/09/01 12:13:33;;;;;;;6.47;3.40;;;19.60;99.90;;;;;;5073583;28;20041;-71
2023/09/01 12:16:00;;;;;;;9.27;3.38;;;19.70;99.90;;;;;;5072402;28;20415;-71
2023/09/01 12:18:34;;;;;;;10.05;2.80;;;19.80;99.90;;;;;;5055490;28;20115;-71
2023/09/01 12:21:05;;;;;;;6.78;3.00;;;19.80;99.90;;;;;;5055724;28;20040;-70
2023/09/01 12:23:35;;;;;;;7.60;2.97;;;19.90;99.90;;;;;;5072311;28;20041;-69
2023/09/01 12:26:01;;;;;;;7.82;3.70;;;19.70;99.90;;;;;;5072507;28;20051;-71
2023/09/01 12:28:28;;;;;;;6.75;3.25;;;19.70;99.90;;;;;;5073501;28;20408;-71
2023/09/01 12:30:56;;;;;;;6.80;3.00;;;19.60;99.90;;;;;;5073293;28;20515;-71
2023/09/01 12:33:22;;;;;;;7.45;3.22;;;19.60;99.90;;;;;;5073366;28;20119;-71
2023/09/01 12:35:49;;;;;;;14.05;3.40;;;19.60;99.90;;;;;;5073359;28;20036;-70
2023/09/01 12:38:14;;;;;;;9.45;3.10;;;19.80;99.90;;;;;;5073456;28;20024;-71
2023/09/01 12:40:43;;;;;;;9.00;3.75;;;19.60;99.90;;;;;;5055694;28;20040;-70
2023/09/01 12:43:08;;;;;;;8.55;3.47;;;19.60;99.90;;;;;;5073304;28;20043;-70
2023/09/01 12:45:35;;;;;;;7.13;3.38;;;19.40;99.90;;;;;;5055177;28;20111;-70
2023/09/01 12:48:01;;;;;;;5.25;3.08;;;19.40;99.90;;;;;;5071535;28;20040;-71
2023/09/01 12:50:27;;;;;;;8.15;2.90;;;19.40;99.90;;;;;;5071490;28;20492;-71